MSC Maeva — H9TF — position and weather

sailwx.info

Track history (hours):
 
Tides and Currents Weather Stations Pressure Air Temp Water Temp Dewpoint Dewpoint Depression Visibility Wind Speed Wind Dir Waves Ship Positions

MSC Maeva

Last reported at 2014-Aug-21 21:15 UTC. Time now 2014-Aug-23 17:26 UTC.
Position N 36°08' W 008°42'.

Type: Ship (hazmat cat A). MMSI: 371851000.

Date/timePositionNaut miles runAvg speedWind from/ knotsBaromVisibWave heightAir tempDewpointWater temp
2014-Aug-21 21:15N 36°08' W 008°42'5319.2
2014-Aug-21 18:30N 35°59' W 007°37'11118.7
2014-Aug-21 12:34N 36°03' W 005°20'20818.2
2014-Aug-21 01:08N 36°34' W 001°04'1119.4
2014-Aug-21 00:33N 36°36' W 000°51'1919.4
2014-Aug-20 23:33N 36°38' W 000°27'1818.4
2014-Aug-20 22:33N 36°42' W 000°04'1918.7
2014-Aug-20 21:33N 36°45' E 000°19'2019.5
2014-Aug-20 20:33N 36°48' E 000°43'1919.4
2014-Aug-20 19:34N 36°51' E 001°07'2019.4
2014-Aug-20 18:33N 36°53' E 001°31'2019.2
2014-Aug-20 17:29N 36°57' E 001°56'1819.6
2014-Aug-20 16:33N 37°00' E 002°19'2020.2
2014-Aug-20 15:33N 37°03' E 002°44'2819.3
2014-Aug-20 14:06N 37°07' E 003°19'28519.5
2014-Aug-19 23:29N 37°49' E 009°14'1819.3
2014-Aug-19 22:32N 37°49' E 009°37'3819.0
2014-Aug-19 20:31N 37°46' E 010°25'4619.4
2014-Aug-19 18:08N 37°24' E 011°17'5819.4
2014-Aug-19 15:10N 36°59' E 012°22'1219.3
2014-Aug-19 14:33N 36°54' E 012°35'1919.4
2014-Aug-19 13:33N 36°45' E 012°57'4219.2
2014-Aug-19 11:23N 36°29' E 013°45'1719.2
2014-Aug-19 10:31N 36°25' E 014°05'1819.2
2014-Aug-19 09:34N 36°21' E 014°27'1919.4
2014-Aug-19 08:33N 36°17' E 014°51'2019.9
2014-Aug-19 07:34N 36°12' E 015°15'2221.2
2014-Aug-19 06:32N 36°08' E 015°41'72119.0
2014-Aug-17 16:33N 33°35' E 030°00'3919.2
2014-Aug-17 14:31N 33°29' E 030°46'1919.5
2014-Aug-17 13:33N 33°26' E 031°09'2119.4
2014-Aug-17 12:27N 33°23' E 031°34'1719.2
2014-Aug-17 11:33N 33°20' E 031°54'1919.2
2014-Aug-17 10:33N 33°17' E 032°17'2019.3
2014-Aug-17 09:32N 33°14' E 032°40'1919.5
2014-Aug-17 08:33N 33°11' E 033°03'2019.5
2014-Aug-17 07:31N 33°08' E 033°27'81 4.7
2014-Aug-16 14:13N 32°49' E 035°01'0 0.0
2014-Aug-16 13:28N 32°49' E 035°01'70 4.1
2014-Aug-15 20:12N 32°40' E 033°38'1116.8
2014-Aug-15 19:33N 32°31' E 033°30'1717.1
2014-Aug-15 18:33N 32°18' E 033°17'1818.3
2014-Aug-15 17:33N 32°04' E 033°03'2118.6
2014-Aug-15 16:25N 31°48' E 032°47'2119.1
2014-Aug-15 15:18N 31°36' E 032°26'1316.9
2014-Aug-15 14:33N 31°24' E 032°24'1212.4
2014-Aug-15 13:33N 31°12' E 032°20'8 8.2
2014-Aug-15 12:33N 31°04' E 032°19'9 9.2
2014-Aug-15 11:33N 30°54' E 032°19'12 9.5
2014-Aug-15 10:16N 30°42' E 032°21'53 5.3
2014-Aug-15 00:10N 29°50' E 032°34'  
Track history (hours):
 
Tides and Currents Weather Stations Pressure Air Temp Water Temp Dewpoint Dewpoint Depression Visibility Wind Speed Wind Dir Waves Ship Positions

MSC Maeva

Last reported at 2014-Aug-21 21:15 UTC. Time now 2014-Aug-23 17:26 UTC.
Position N 36°08' W 008°42'.

Type: Ship (hazmat cat A). MMSI: 371851000.

Date/timePositionNaut miles runAvg speedWind from/ knotsBaromVisibWave heightAir tempDewpointWater temp
2014-Aug-21 21:15N 36°08' W 008°42'5319.2
2014-Aug-21 18:30N 35°59' W 007°37'11118.7
2014-Aug-21 12:34N 36°03' W 005°20'20818.2
2014-Aug-21 01:08N 36°34' W 001°04'1119.4
2014-Aug-21 00:33N 36°36' W 000°51'1919.4
2014-Aug-20 23:33N 36°38' W 000°27'1818.4
2014-Aug-20 22:33N 36°42' W 000°04'1918.7
2014-Aug-20 21:33N 36°45' E 000°19'2019.5
2014-Aug-20 20:33N 36°48' E 000°43'1919.4
2014-Aug-20 19:34N 36°51' E 001°07'2019.4
2014-Aug-20 18:33N 36°53' E 001°31'2019.2
2014-Aug-20 17:29N 36°57' E 001°56'1819.6
2014-Aug-20 16:33N 37°00' E 002°19'2020.2
2014-Aug-20 15:33N 37°03' E 002°44'2819.3
2014-Aug-20 14:06N 37°07' E 003°19'28519.5
2014-Aug-19 23:29N 37°49' E 009°14'1819.3
2014-Aug-19 22:32N 37°49' E 009°37'3819.0
2014-Aug-19 20:31N 37°46' E 010°25'4619.4
2014-Aug-19 18:08N 37°24' E 011°17'5819.4
2014-Aug-19 15:10N 36°59' E 012°22'1219.3
2014-Aug-19 14:33N 36°54' E 012°35'1919.4
2014-Aug-19 13:33N 36°45' E 012°57'4219.2
2014-Aug-19 11:23N 36°29' E 013°45'1719.2
2014-Aug-19 10:31N 36°25' E 014°05'1819.2
2014-Aug-19 09:34N 36°21' E 014°27'1919.4
2014-Aug-19 08:33N 36°17' E 014°51'2019.9
2014-Aug-19 07:34N 36°12' E 015°15'2221.2
2014-Aug-19 06:32N 36°08' E 015°41'72119.0
2014-Aug-17 16:33N 33°35' E 030°00'3919.2
2014-Aug-17 14:31N 33°29' E 030°46'1919.5
2014-Aug-17 13:33N 33°26' E 031°09'2119.4
2014-Aug-17 12:27N 33°23' E 031°34'1719.2
2014-Aug-17 11:33N 33°20' E 031°54'1919.2
2014-Aug-17 10:33N 33°17' E 032°17'2019.3
2014-Aug-17 09:32N 33°14' E 032°40'1919.5
2014-Aug-17 08:33N 33°11' E 033°03'2019.5
2014-Aug-17 07:31N 33°08' E 033°27'81 4.7
2014-Aug-16 14:13N 32°49' E 035°01'0 0.0
2014-Aug-16 13:28N 32°49' E 035°01'70 4.1
2014-Aug-15 20:12N 32°40' E 033°38'1116.8
2014-Aug-15 19:33N 32°31' E 033°30'1717.1
2014-Aug-15 18:33N 32°18' E 033°17'1818.3
2014-Aug-15 17:33N 32°04' E 033°03'2118.6
2014-Aug-15 16:25N 31°48' E 032°47'2119.1
2014-Aug-15 15:18N 31°36' E 032°26'1316.9
2014-Aug-15 14:33N 31°24' E 032°24'1212.4
2014-Aug-15 13:33N 31°12' E 032°20'8 8.2
2014-Aug-15 12:33N 31°04' E 032°19'9 9.2
2014-Aug-15 11:33N 30°54' E 032°19'12 9.5
2014-Aug-15 10:16N 30°42' E 032°21'53 5.3
2014-Aug-15 00:10N 29°50' E 032°34'  

Dump ship's entire track history